Flight Track Log - Related Links

Times and Time Zones

All times are in EDT time to prevent confusion due to time zone crossing. See the FLG3731 flight status page for this flight to view local times or setup timezone preferences in your user account.

Time Position Orientation Groundspeed Altitude Reporting Facility
EDT Latitude Longitude Course Direction KTS MPH feet Rate Location/Type
Fri 08:02:17 AM 42.7256 -73.8031 188° South 167 192 1,700  Level Boston Center
Fri 08:02:35 AM 42.7144 -73.8053 188° South 146 168 2,300 1,765 Climbing Boston Center
Fri 08:03:42 AM 42.7286 -73.8683 287° West 247 284 4,200 2,035 Climbing Boston Center
Fri 08:04:30 AM 42.7750 -73.9067 329° Northwest 245 282 6,200 2,422 Climbing Boston Center
Fri 08:05:31 AM 42.8356 -73.9647 325° Northwest 262 302 8,600 2,281 Climbing Boston Center
Fri 08:06:31 AM 42.9008 -74.0250 326° Northwest 279 321 10,800 1,869 Climbing Boston Center
Fri 08:07:33 AM 42.9739 -74.0936 326° Northwest 318 366 12,400 1,854 Climbing Boston Center
Fri 08:08:34 AM 43.0561 -74.1628 328° Northwest 321 369 14,600 1,820 Climbing Boston Center
Fri 08:09:35 AM 43.1106 -74.2483 311° West 308 354 16,100 1,377 Climbing Boston Center
Fri 08:10:36 AM 43.1147 -74.3639 273° West 304 350 17,400 1,289 Climbing Boston Center
Fri 08:11:36 AM 43.1189 -74.4817 273° West 308 354 18,700 1,150 Climbing Boston Center
Fri 08:12:36 AM 43.1211 -74.5972 272° West 308 354 19,700 976 Climbing Boston Center
Fri 08:13:39 AM 43.1250 -74.7200 273° West 317 365 20,700 1,082 Climbing Boston Center
Fri 08:14:38 AM 43.1294 -74.8453 273° West 326 375 21,900 1,150 Climbing Boston Center
Fri 08:15:39 AM 43.1325 -74.9708 272° West 327 376 23,000 919 Climbing Boston Center
Fri 08:16:42 AM 43.1356 -75.0975 272° West 327 376 23,800 871 Climbing Boston Center
Fri 08:17:43 AM 43.1403 -75.2261 273° West 332 382 24,800 1,041 Climbing Boston Center
Fri 08:18:43 AM 43.1425 -75.3522 271° West 332 382 25,900 893 Climbing Boston Center
Fri 08:19:44 AM 43.1469 -75.4775 273° West 330 380 26,600 595 Climbing Boston Center
Fri 08:20:44 AM 43.1494 -75.6042 272° West 330 380 27,100 496 Climbing Boston Center
Fri 08:21:45 AM 43.1517 -75.7347 271° West 338 389 27,600 435 Climbing Boston Center
Fri 08:22:48 AM 43.1539 -75.8658 271° West 340 391 28,000 194 Climbing Boston Center
Fri 08:23:49 AM 43.1564 -75.9975 272° West 344 396 28,000  Level Boston Center
Fri 08:24:50 AM 43.1603 -76.1547 272° West 345 397 28,000  Level Boston Center
Fri 08:25:49 AM 43.1531 -76.2853 266° West 345 397 28,000  Level Boston Center
Fri 08:26:50 AM 43.1425 -76.4139 264° West 344 396 28,000  Level Boston Center
Fri 08:27:51 AM 43.1306 -76.5450 263° West 345 397 28,000  Level Boston Center
Fri 08:28:52 AM 43.1203 -76.6764 264° West 345 397 28,000  Level Boston Center
Fri 08:29:55 AM 43.1086 -76.8053 263° West 346 398 28,000  Level Boston Center
Fri 08:30:55 AM 43.0972 -76.9364 263° West 346 398 28,000  Level Boston Center
Fri 08:31:56 AM 43.0858 -77.0658 263° West 346 398 28,000  Level Boston Center
Fri 08:32:57 AM 43.0739 -77.1953 263° West 346 398 28,000  Level Boston Center
Fri 08:33:57 AM 43.0608 -77.3258 262° West 346 398 28,000  Level Boston Center
Fri 08:34:58 AM 43.0486 -77.4553 263° West 346 398 28,000  Level Boston Center
Fri 08:36:27 AM 43.0283 -77.6639 262° West 348 400 28,000  Level Cleveland Center
Fri 08:37:29 AM 43.0147 -77.7936 262° West 349 402 28,000  Level Cleveland Center
Fri 08:38:31 AM 43.0025 -77.9253 263° West 349 402 28,000  Level Cleveland Center
Fri 08:39:33 AM 42.9867 -78.0836 262° West 352 405 28,000  Level Cleveland Center
Fri 08:40:35 AM 42.9733 -78.2167 262° West 356 410 28,000  Level Cleveland Center
Fri 08:41:37 AM 42.9600 -78.3500 262° West 358 412 28,000  Level Cleveland Center
Fri 08:42:39 AM 42.9467 -78.4817 262° West 353 406 28,000  Level Cleveland Center
Fri 08:43:41 AM 42.9325 -78.6125 262° West 352 405 28,000  Level Cleveland Center
Fri 08:44:43 AM 42.9156 -78.7394 260° West 344 396 28,000  Level Cleveland Center
Fri 08:45:45 AM 42.8944 -78.8906 259° West 341 392 28,000  Level Cleveland Center
Fri 08:46:46 AM 42.8758 -79.0142 258° West 338 389 28,000  Level Cleveland Center
Fri 08:47:48 AM 42.8592 -79.1328 259° West 324 373 28,000  Level Cleveland Center
Fri 08:48:50 AM 42.8411 -79.2525 258° West 322 371 28,000  Level Cleveland Center
Fri 08:49:52 AM 42.8222 -79.3750 258° West 327 376 28,000  Level Cleveland Center
Fri 08:50:54 AM 42.8039 -79.4972 258° West 330 380 28,000  Level Cleveland Center
Fri 08:51:56 AM 42.7814 -79.6458 258° West 332 382 28,000  Level Cleveland Center
Fri 08:52:58 AM 42.7625 -79.7686 258° West 333 383 28,000  Level Cleveland Center
Fri 08:54:00 AM 42.7481 -79.8947 261° West 336 387 28,000  Level Cleveland Center
Fri 08:55:02 AM 42.7433 -80.0297 267° West 352 405 28,000  Level Cleveland Center
Fri 08:56:04 AM 42.7378 -80.1658 267° West 357 411 28,000  Level Cleveland Center
Fri 08:57:06 AM 42.7319 -80.3017 267° West 357 411 28,000  Level Cleveland Center
Fri 08:58:07 AM 42.7258 -80.4369 267° West 356 410 28,000 -146 Level Cleveland Center
Fri 08:59:09 AM 42.7189 -80.5950 267° West 355 409 27,700 -1,161 Descending Cleveland Center
Fri 09:00:11 AM 42.7139 -80.7311 267° West 356 410 25,600 -1,694 Descending Cleveland Center
Fri 09:01:13 AM 42.7081 -80.8661 267° West 356 410 24,200 -774 Descending Cleveland Center
Fri 09:02:15 AM 42.6961 -80.9894 263° West 337 388 24,000 -726 Descending Cleveland Center
Fri 09:03:17 AM 42.6806 -81.1164 261° West 337 388 22,700 -1,306 Descending Cleveland Center
Fri 09:04:19 AM 42.6669 -81.2367 261° West 324 373 21,300 -1,306 Descending Cleveland Center
Fri 09:05:21 AM 42.6550 -81.3417 261° West 288 331 20,000 -1,113 Descending Cleveland Center
Fri 09:06:23 AM 42.6389 -81.4708 260° West 293 337 19,000 -1,403 Descending Cleveland Center
Fri 09:07:25 AM 42.6267 -81.5833 262° West 295 339 17,100 -1,597 Descending Cleveland Center
Fri 09:08:27 AM 42.6147 -81.6889 261° West 288 331 15,700 -1,113 Descending Cleveland Center
Fri 09:09:29 AM 42.6011 -81.7928 260° West 284 327 14,800 -968 Descending Cleveland Center
Fri 09:10:31 AM 42.5881 -81.9036 261° West 294 338 13,700 -1,113 Descending Cleveland Center
Fri 09:11:33 AM 42.5750 -82.0156 261° West 297 342 12,500 -823 Descending Cleveland Center
Fri 09:12:35 AM 42.5606 -82.1297 260° West 303 349 12,000 -242 Descending Cleveland Center
Fri 09:13:37 AM 42.5436 -82.2647 260° West 306 352 12,000  Level Cleveland Center
Fri 09:13:40 AM 42.5433 -82.2767 268° West 299 344 12,000  Level Cleveland Center
Fri 09:14:39 AM 42.5300 -82.3736 259° West 300 345 12,000  Level Cleveland Center
Fri 09:15:12 AM 42.5217 -82.4381 260° West 294 338 12,000  Level Cleveland Center
Fri 09:15:41 AM 42.5167 -82.4828 261° West 298 343 12,000  Level Cleveland Center
Fri 09:16:07 AM 42.5083 -82.5381 258° West 293 337 12,000  Level Cleveland Center
Fri 09:16:43 AM 42.4956 -82.5872 251° West 294 338 12,000 -492 Level Cleveland Center
Fri 09:17:08 AM 42.4761 -82.6386 243° Southwest 288 331 11,500 -968 Descending Cleveland Center
Fri 09:17:45 AM 42.4603 -82.6814 243° Southwest 286 329 11,000 -1,309 Descending Cleveland Center
Fri 09:18:03 AM 42.4475 -82.7169 244° Southwest 242 278 10,300 -1,742 Descending Cleveland Center
Fri 09:18:47 AM 42.4311 -82.7631 244° Southwest 253 291 9,200 -1,300 Descending Cleveland Center
Fri 09:19:03 AM 42.4164 -82.8003 242° Southwest 234 269 9,000 -871 Descending Cleveland Center
Fri 09:19:49 AM 42.3978 -82.8553 245° Southwest 233 268 8,300 -982 Descending Cleveland Center
Fri 09:19:58 AM 42.3947 -82.8681 252° West 230 265 8,100 -774 Descending Cleveland Center
Fri 09:20:51 AM 42.4186 -82.9336 296° West 238 274 7,500 -835 Descending Cleveland Center
Fri 09:21:17 AM 42.4486 -82.9603 327° Northwest 261 300 7,000 -476 Descending Cleveland Center
Fri 09:21:54 AM 42.4808 -82.9711 346° North 248 285 7,000  Level Cleveland Center
Fri 09:22:12 AM 42.5033 -82.9844 336° Northwest 222 255 7,000  Level Cleveland Center
Fri 09:22:56 AM 42.5375 -82.9986 343° North 225 259 7,000  Level Cleveland Center
Fri 09:23:07 AM 42.5511 -83.0167 316° Northwest 190 219 7,000  Level Cleveland Center
Fri 09:23:58 AM 42.5508 -83.0542 269° West 182 209 7,000  Level Cleveland Center
Fri 09:24:02 AM 42.5453 -83.0694 244° Southwest 154 177 7,000 -774 Level Cleveland Center
Fri 09:25:00 AM 42.5233 -83.1078 232° Southwest 157 181 6,200 -885 Descending Cleveland Center
Fri 09:25:03 AM 42.5189 -83.1114 211° Southwest 147 169 6,100 -211 Descending Cleveland Center
Fri 09:25:57 AM 42.4856 -83.1378 210° Southwest 158 182 6,000 -102 Descending Cleveland Center
Fri 09:26:02 AM 42.4872 -83.1356 45° Northeast 150 173 6,000 -90 Level Cleveland Center
Fri 09:27:04 AM 42.4489 -83.1650 210° Southwest 154 177 5,900 -488 Descending Cleveland Center
Fri 09:28:05 AM 42.4100 -83.1953 210° Southwest 148 170 5,000 -774 Descending Cleveland Center
Fri 09:28:06 AM 42.4150 -83.1903 36° Northeast 147 169 5,100 -787 Climbing Cleveland Center
Fri 09:29:06 AM 42.3725 -83.2211 208° Southwest 156 180 4,200 -774 Descending Cleveland Center
Fri 09:29:08 AM 42.3775 -83.2172 30° Northeast 147 169 4,300 -873 Climbing Cleveland Center
Fri 09:30:01 AM 42.3392 -83.2447 208° Southwest 138 159 3,400 -774 Descending Cleveland Center
Fri 09:30:10 AM 42.3422 -83.2431 22° Northeast 148 170 3,500 -592 Climbing Cleveland Center
Fri 09:31:12 AM 42.3089 -83.2686 210° Southwest 145 167 2,700 -868 Descending Cleveland Center
Fri 09:31:26 AM 42.2947 -83.2781 206° Southwest 118 136 2,400 -840 Descending Cleveland Center
Fri 09:32:02 AM 42.2792 -83.2900 210° Southwest 110 127 2,000 -500 Descending Cleveland Center
Fri 09:32:14 AM 42.2753 -83.2919 200° South 124 143 2,000 -590 Level Cleveland Center
Fri 09:33:03 AM 42.2503 -83.3114 210° Southwest 114 131 1,400 -677 Descending Cleveland Center
Fri 09:33:16 AM 42.2467 -83.3128 196° South 118 136 1,300 -160 Descending Cleveland Center
Fri 09:34:18 AM 42.2186 -83.3339 209° Southwest 118 136 1,200 -97 Descending Cleveland Center

Login

Don't have an account? Register now (free) for customized features, flight alerts, and more!